sensor_id;sensor_type;location;lat;lon;timestamp;pressure;altitude;pressure_sealevel;temperature;humidity
20620;BME280;10469;42.720;23.252;2023-07-24T00:01:26;95109.97;;;20.95;100.00
20620;BME280;10469;42.720;23.252;2023-07-24T00:03:52;95117.13;;;20.91;100.00
20620;BME280;10469;42.720;23.252;2023-07-24T00:06:20;95114.97;;;20.88;100.00
20620;BME280;10469;42.720;23.252;2023-07-24T00:08:45;95107.09;;;20.87;100.00
20620;BME280;10469;42.720;23.252;2023-07-24T00:11:10;95106.34;;;20.81;100.00
20620;BME280;10469;42.720;23.252;2023-07-24T00:13:36;95113.22;;;20.78;100.00
20620;BME280;10469;42.720;23.252;2023-07-24T00:16:06;95114.91;;;20.74;100.00
20620;BME280;10469;42.720;23.252;2023-07-24T00:18:32;95110.78;;;20.58;100.00
20620;BME280;10469;42.720;23.252;2023-07-24T00:20:57;95116.53;;;20.75;100.00
20620;BME280;10469;42.720;23.252;2023-07-24T00:23:23;95102.59;;;20.58;100.00
20620;BME280;10469;42.720;23.252;2023-07-24T00:25:48;95104.38;;;20.68;100.00
20620;BME280;10469;42.720;23.252;2023-07-24T00:28:14;95081.09;;;20.75;100.00
20620;BME280;10469;42.720;23.252;2023-07-24T00:30:39;95107.75;;;20.97;100.00
20620;BME280;10469;42.720;23.252;2023-07-24T00:33:05;95096.88;;;20.78;100.00
20620;BME280;10469;42.720;23.252;2023-07-24T00:35:30;95093.34;;;20.78;100.00
20620;BME280;10469;42.720;23.252;2023-07-24T00:37:56;95093.53;;;20.63;100.00
20620;BME280;10469;42.720;23.252;2023-07-24T00:40:21;95096.56;;;20.61;100.00
20620;BME280;10469;42.720;23.252;2023-07-24T00:42:47;95100.56;;;20.45;100.00
20620;BME280;10469;42.720;23.252;2023-07-24T00:45:14;95088.63;;;20.65;100.00
20620;BME280;10469;42.720;23.252;2023-07-24T00:47:40;95086.91;;;20.50;100.00
20620;BME280;10469;42.720;23.252;2023-07-24T00:50:07;95104.38;;;20.87;100.00
20620;BME280;10469;42.720;23.252;2023-07-24T00:52:32;95110.19;;;20.61;100.00
20620;BME280;10469;42.720;23.252;2023-07-24T00:54:59;95108.63;;;20.55;100.00
20620;BME280;10469;42.720;23.252;2023-07-24T00:57:24;95100.06;;;20.43;100.00
20620;BME280;10469;42.720;23.252;2023-07-24T00:59:50;95104.28;;;20.54;100.00
20620;BME280;10469;42.720;23.252;2023-07-24T01:02:16;95094.75;;;20.33;100.00
20620;BME280;10469;42.720;23.252;2023-07-24T01:04:41;95088.75;;;20.54;100.00
20620;BME280;10469;42.720;23.252;2023-07-24T01:07:07;95091.56;;;20.68;100.00
20620;BME280;10469;42.720;23.252;2023-07-24T01:09:32;95085.00;;;20.69;100.00
20620;BME280;10469;42.720;23.252;2023-07-24T01:12:39;95098.66;;;20.26;100.00
20620;BME280;10469;42.720;23.252;2023-07-24T01:18:06;95086.25;;;20.58;100.00
20620;BME280;10469;42.720;23.252;2023-07-24T01:20:38;95079.97;;;20.39;100.00
20620;BME280;10469;42.720;23.252;2023-07-24T01:23:47;95083.09;;;20.08;100.00
20620;BME280;10469;42.720;23.252;2023-07-24T01:26:03;95074.28;;;19.92;100.00
20620;BME280;10469;42.720;23.252;2023-07-24T01:28:29;95070.22;;;19.90;100.00
20620;BME280;10469;42.720;23.252;2023-07-24T01:30:55;95056.91;;;19.64;100.00
20620;BME280;10469;42.720;23.252;2023-07-24T01:33:21;95086.50;;;19.71;100.00
20620;BME280;10469;42.720;23.252;2023-07-24T01:35:53;95099.28;;;19.94;100.00
20620;BME280;10469;42.720;23.252;2023-07-24T01:38:21;95107.44;;;19.99;100.00
20620;BME280;10469;42.720;23.252;2023-07-24T01:40:48;95099.25;;;19.75;100.00
20620;BME280;10469;42.720;23.252;2023-07-24T01:43:14;95093.66;;;19.91;100.00
20620;BME280;10469;42.720;23.252;2023-07-24T01:45:40;95092.00;;;19.90;100.00
20620;BME280;10469;42.720;23.252;2023-07-24T01:48:06;95089.34;;;20.09;100.00
20620;BME280;10469;42.720;23.252;2023-07-24T01:50:32;95109.03;;;20.00;100.00
20620;BME280;10469;42.720;23.252;2023-07-24T01:52:57;95098.72;;;20.21;100.00
20620;BME280;10469;42.720;23.252;2023-07-24T01:55:23;95100.16;;;20.14;100.00
20620;BME280;10469;42.720;23.252;2023-07-24T01:57:48;95090.06;;;19.95;100.00
20620;BME280;10469;42.720;23.252;2023-07-24T02:00:14;95100.47;;;19.88;100.00
20620;BME280;10469;42.720;23.252;2023-07-24T02:02:39;95097.72;;;19.64;100.00
20620;BME280;10469;42.720;23.252;2023-07-24T02:05:05;95100.97;;;19.90;100.00
20620;BME280;10469;42.720;23.252;2023-07-24T02:07:31;95100.31;;;20.03;100.00
20620;BME280;10469;42.720;23.252;2023-07-24T02:09:56;95108.69;;;19.83;100.00
20620;BME280;10469;42.720;23.252;2023-07-24T02:12:22;95092.47;;;19.73;100.00
20620;BME280;10469;42.720;23.252;2023-07-24T02:14:47;95096.53;;;19.75;100.00
20620;BME280;10469;42.720;23.252;2023-07-24T02:17:17;95082.75;;;19.67;100.00
20620;BME280;10469;42.720;23.252;2023-07-24T02:19:43;95092.28;;;19.64;100.00
20620;BME280;10469;42.720;23.252;2023-07-24T02:22:08;95093.00;;;19.75;100.00
20620;BME280;10469;42.720;23.252;2023-07-24T02:24:34;95093.66;;;19.91;100.00
20620;BME280;10469;42.720;23.252;2023-07-24T02:27:00;95091.91;;;20.00;100.00
20620;BME280;10469;42.720;23.252;2023-07-24T02:29:26;95092.59;;;19.87;100.00
20620;BME280;10469;42.720;23.252;2023-07-24T02:31:53;95086.63;;;19.61;100.00
20620;BME280;10469;42.720;23.252;2023-07-24T02:34:19;95075.53;;;19.52;100.00
20620;BME280;10469;42.720;23.252;2023-07-24T02:36:49;95094.28;;;19.53;100.00
20620;BME280;10469;42.720;23.252;2023-07-24T02:39:15;95089.69;;;19.49;100.00
20620;BME280;10469;42.720;23.252;2023-07-24T02:41:40;95096.94;;;19.59;100.00
20620;BME280;10469;42.720;23.252;2023-07-24T02:44:06;95077.59;;;19.60;100.00
20620;BME280;10469;42.720;23.252;2023-07-24T02:46:31;95083.56;;;19.67;100.00
20620;BME280;10469;42.720;23.252;2023-07-24T02:48:57;95081.19;;;19.61;100.00
20620;BME280;10469;42.720;23.252;2023-07-24T02:51:22;95084.53;;;19.76;100.00
20620;BME280;10469;42.720;23.252;2023-07-24T02:53:48;95093.91;;;19.60;100.00
20620;BME280;10469;42.720;23.252;2023-07-24T02:56:13;95069.81;;;19.24;100.00
20620;BME280;10469;42.720;23.252;2023-07-24T02:58:38;95085.38;;;19.48;100.00
20620;BME280;10469;42.720;23.252;2023-07-24T03:01:05;95089.84;;;19.34;100.00
20620;BME280;10469;42.720;23.252;2023-07-24T03:03:34;95069.09;;;19.14;100.00
20620;BME280;10469;42.720;23.252;2023-07-24T03:06:00;95088.97;;;19.09;100.00
20620;BME280;10469;42.720;23.252;2023-07-24T03:08:25;95097.09;;;19.14;100.00
20620;BME280;10469;42.720;23.252;2023-07-24T03:10:52;95093.63;;;19.09;100.00
20620;BME280;10469;42.720;23.252;2023-07-24T03:13:17;95094.69;;;19.08;100.00
20620;BME280;10469;42.720;23.252;2023-07-24T03:15:43;95101.53;;;19.05;100.00
20620;BME280;10469;42.720;23.252;2023-07-24T03:18:08;95094.22;;;18.95;100.00
20620;BME280;10469;42.720;23.252;2023-07-24T03:20:33;95090.88;;;18.74;100.00
20620;BME280;10469;42.720;23.252;2023-07-24T03:22:59;95091.56;;;18.90;100.00
20620;BME280;10469;42.720;23.252;2023-07-24T03:25:24;95097.09;;;18.80;100.00
20620;BME280;10469;42.720;23.252;2023-07-24T03:27:50;95100.75;;;18.55;100.00
20620;BME280;10469;42.720;23.252;2023-07-24T03:30:15;95097.19;;;18.60;100.00
20620;BME280;10469;42.720;23.252;2023-07-24T03:32:41;95096.13;;;18.55;100.00
20620;BME280;10469;42.720;23.252;2023-07-24T03:35:07;95098.31;;;18.53;100.00
20620;BME280;10469;42.720;23.252;2023-07-24T03:37:34;95092.22;;;18.77;100.00
20620;BME280;10469;42.720;23.252;2023-07-24T03:40:00;95079.63;;;18.91;100.00
20620;BME280;10469;42.720;23.252;2023-07-24T03:42:30;95098.88;;;18.95;100.00
20620;BME280;10469;42.720;23.252;2023-07-24T03:44:57;95106.72;;;18.57;100.00
20620;BME280;10469;42.720;23.252;2023-07-24T03:47:23;95099.97;;;18.49;100.00
20620;BME280;10469;42.720;23.252;2023-07-24T03:49:48;95105.44;;;18.44;100.00
20620;BME280;10469;42.720;23.252;2023-07-24T03:52:14;95099.31;;;18.68;100.00
20620;BME280;10469;42.720;23.252;2023-07-24T03:54:39;95091.75;;;18.60;100.00
20620;BME280;10469;42.720;23.252;2023-07-24T03:57:05;95097.44;;;18.63;100.00
20620;BME280;10469;42.720;23.252;2023-07-24T03:59:30;95104.22;;;18.16;100.00
20620;BME280;10469;42.720;23.252;2023-07-24T04:01:57;95106.38;;;18.19;100.00
20620;BME280;10469;42.720;23.252;2023-07-24T04:04:23;95108.63;;;18.02;100.00
20620;BME280;10469;42.720;23.252;2023-07-24T04:06:48;95100.91;;;18.24;100.00
20620;BME280;10469;42.720;23.252;2023-07-24T04:09:14;95111.94;;;18.48;100.00
20620;BME280;10469;42.720;23.252;2023-07-24T04:11:40;95108.88;;;18.55;100.00
20620;BME280;10469;42.720;23.252;2023-07-24T04:14:06;95103.19;;;18.51;100.00
20620;BME280;10469;42.720;23.252;2023-07-24T04:16:31;95108.41;;;18.92;100.00
20620;BME280;10469;42.720;23.252;2023-07-24T04:18:57;95111.59;;;18.99;100.00
20620;BME280;10469;42.720;23.252;2023-07-24T04:21:22;95107.31;;;19.27;100.00
20620;BME280;10469;42.720;23.252;2023-07-24T04:23:48;95106.38;;;19.08;100.00
20620;BME280;10469;42.720;23.252;2023-07-24T04:26:13;95120.34;;;19.25;100.00
20620;BME280;10469;42.720;23.252;2023-07-24T04:28:39;95118.78;;;19.19;100.00
20620;BME280;10469;42.720;23.252;2023-07-24T04:31:04;95113.56;;;18.94;100.00
20620;BME280;10469;42.720;23.252;2023-07-24T04:33:30;95114.75;;;18.77;100.00
20620;BME280;10469;42.720;23.252;2023-07-24T04:35:55;95116.06;;;19.19;100.00
20620;BME280;10469;42.720;23.252;2023-07-24T04:38:21;95120.06;;;19.61;100.00
20620;BME280;10469;42.720;23.252;2023-07-24T04:40:47;95111.69;;;19.52;100.00
20620;BME280;10469;42.720;23.252;2023-07-24T04:43:12;95111.81;;;19.71;100.00
20620;BME280;10469;42.720;23.252;2023-07-24T04:45:38;95120.84;;;19.91;100.00
20620;BME280;10469;42.720;23.252;2023-07-24T04:48:04;95112.03;;;19.75;100.00
20620;BME280;10469;42.720;23.252;2023-07-24T04:50:29;95125.81;;;19.54;100.00
20620;BME280;10469;42.720;23.252;2023-07-24T04:52:55;95119.06;;;19.52;100.00
20620;BME280;10469;42.720;23.252;2023-07-24T04:55:21;95125.47;;;19.90;100.00
20620;BME280;10469;42.720;23.252;2023-07-24T04:57:47;95127.56;;;19.74;100.00
20620;BME280;10469;42.720;23.252;2023-07-24T05:00:13;95108.75;;;19.78;100.00
20620;BME280;10469;42.720;23.252;2023-07-24T05:02:39;95116.13;;;20.20;100.00
20620;BME280;10469;42.720;23.252;2023-07-24T05:05:05;95114.41;;;20.05;100.00
20620;BME280;10469;42.720;23.252;2023-07-24T05:07:31;95119.53;;;20.55;100.00
20620;BME280;10469;42.720;23.252;2023-07-24T05:09:56;95120.47;;;21.02;100.00
20620;BME280;10469;42.720;23.252;2023-07-24T05:12:22;95124.09;;;21.16;100.00
20620;BME280;10469;42.720;23.252;2023-07-24T05:14:47;95115.00;;;21.40;100.00
20620;BME280;10469;42.720;23.252;2023-07-24T05:17:13;95127.03;;;21.39;100.00
20620;BME280;10469;42.720;23.252;2023-07-24T05:19:38;95120.88;;;21.28;100.00
20620;BME280;10469;42.720;23.252;2023-07-24T05:22:04;95104.09;;;21.40;100.00
20620;BME280;10469;42.720;23.252;2023-07-24T05:24:29;95102.63;;;21.61;100.00
20620;BME280;10469;42.720;23.252;2023-07-24T05:26:55;95120.72;;;21.85;100.00
20620;BME280;10469;42.720;23.252;2023-07-24T05:29:20;95099.28;;;21.64;100.00
20620;BME280;10469;42.720;23.252;2023-07-24T05:31:47;95119.16;;;22.11;100.00
20620;BME280;10469;42.720;23.252;2023-07-24T05:34:12;95105.47;;;21.97;100.00
20620;BME280;10469;42.720;23.252;2023-07-24T05:36:38;95109.13;;;22.48;100.00
20620;BME280;10469;42.720;23.252;2023-07-24T05:39:03;95110.81;;;22.71;100.00
20620;BME280;10469;42.720;23.252;2023-07-24T05:41:29;95100.94;;;22.98;100.00
20620;BME280;10469;42.720;23.252;2023-07-24T05:43:54;95110.00;;;22.71;100.00
20620;BME280;10469;42.720;23.252;2023-07-24T05:46:20;95117.19;;;22.81;100.00
20620;BME280;10469;42.720;23.252;2023-07-24T05:48:46;95101.94;;;22.88;100.00
20620;BME280;10469;42.720;23.252;2023-07-24T05:51:11;95098.69;;;23.00;100.00
20620;BME280;10469;42.720;23.252;2023-07-24T05:53:37;95092.47;;;23.31;100.00
20620;BME280;10469;42.720;23.252;2023-07-24T05:56:03;95100.28;;;23.15;100.00
20620;BME280;10469;42.720;23.252;2023-07-24T05:58:28;95097.25;;;23.47;100.00
20620;BME280;10469;42.720;23.252;2023-07-24T06:00:54;95092.94;;;23.77;100.00
20620;BME280;10469;42.720;23.252;2023-07-24T06:03:25;95094.06;;;24.16;100.00
20620;BME280;10469;42.720;23.252;2023-07-24T06:05:52;95084.81;;;24.43;100.00
20620;BME280;10469;42.720;23.252;2023-07-24T06:08:19;95078.34;;;23.91;100.00
20620;BME280;10469;42.720;23.252;2023-07-24T06:10:46;95083.66;;;24.36;100.00
20620;BME280;10469;42.720;23.252;2023-07-24T06:13:13;95090.88;;;24.23;100.00
20620;BME280;10469;42.720;23.252;2023-07-24T06:15:38;95077.31;;;24.18;100.00
20620;BME280;10469;42.720;23.252;2023-07-24T06:18:03;95096.50;;;24.66;100.00
20620;BME280;10469;42.720;23.252;2023-07-24T06:20:29;95095.59;;;25.14;100.00
20620;BME280;10469;42.720;23.252;2023-07-24T06:22:54;95091.25;;;25.86;100.00
20620;BME280;10469;42.720;23.252;2023-07-24T06:25:20;95090.31;;;26.59;100.00
20620;BME280;10469;42.720;23.252;2023-07-24T06:27:45;95090.09;;;26.34;100.00
20620;BME280;10469;42.720;23.252;2023-07-24T06:30:11;95083.28;;;26.40;100.00
20620;BME280;10469;42.720;23.252;2023-07-24T06:32:36;95071.91;;;27.55;100.00
20620;BME280;10469;42.720;23.252;2023-07-24T06:35:02;95084.84;;;27.00;100.00
20620;BME280;10469;42.720;23.252;2023-07-24T06:37:27;95077.16;;;26.85;100.00
20620;BME280;10469;42.720;23.252;2023-07-24T06:39:53;95082.44;;;27.74;100.00
20620;BME280;10469;42.720;23.252;2023-07-24T06:42:18;95083.44;;;28.64;100.00
20620;BME280;10469;42.720;23.252;2023-07-24T06:44:43;95079.03;;;28.99;100.00
20620;BME280;10469;42.720;23.252;2023-07-24T06:47:09;95075.59;;;27.71;100.00
20620;BME280;10469;42.720;23.252;2023-07-24T06:49:34;95074.09;;;27.95;100.00
20620;BME280;10469;42.720;23.252;2023-07-24T06:52:01;95062.63;;;28.30;100.00
20620;BME280;10469;42.720;23.252;2023-07-24T06:54:26;95071.66;;;28.79;100.00
20620;BME280;10469;42.720;23.252;2023-07-24T06:56:52;95076.78;;;28.53;100.00
20620;BME280;10469;42.720;23.252;2023-07-24T06:59:17;95078.50;;;28.57;100.00
20620;BME280;10469;42.720;23.252;2023-07-24T07:01:42;95084.97;;;27.58;100.00
20620;BME280;10469;42.720;23.252;2023-07-24T07:04:08;95071.75;;;28.95;100.00
20620;BME280;10469;42.720;23.252;2023-07-24T07:06:33;95078.94;;;29.52;100.00
20620;BME280;10469;42.720;23.252;2023-07-24T07:08:59;95089.47;;;29.06;100.00
20620;BME280;10469;42.720;23.252;2023-07-24T07:11:25;95075.38;;;29.52;100.00
20620;BME280;10469;42.720;23.252;2023-07-24T07:13:50;95084.38;;;31.42;97.54
20620;BME280;10469;42.720;23.252;2023-07-24T07:16:15;95077.25;;;32.49;84.31
20620;BME280;10469;42.720;23.252;2023-07-24T07:18:42;95076.19;;;32.11;83.74
20620;BME280;10469;42.720;23.252;2023-07-24T07:21:07;95079.97;;;31.21;91.05
20620;BME280;10469;42.720;23.252;2023-07-24T07:23:33;95068.03;;;29.43;100.00
20620;BME280;10469;42.720;23.252;2023-07-24T07:25:58;95074.03;;;30.05;100.00
20620;BME280;10469;42.720;23.252;2023-07-24T07:28:24;95063.31;;;31.18;96.97
20620;BME280;10469;42.720;23.252;2023-07-24T07:30:49;95053.13;;;32.30;91.57
20620;BME280;10469;42.720;23.252;2023-07-24T07:33:14;95057.81;;;32.03;89.28
20620;BME280;10469;42.720;23.252;2023-07-24T07:35:40;95066.53;;;30.85;95.48
20620;BME280;10469;42.720;23.252;2023-07-24T07:38:05;95056.66;;;32.27;87.94
20620;BME280;10469;42.720;23.252;2023-07-24T07:40:31;95053.97;;;33.40;82.05
20620;BME280;10469;42.720;23.252;2023-07-24T07:42:57;95043.47;;;33.26;78.68
20620;BME280;10469;42.720;23.252;2023-07-24T07:45:23;95048.75;;;32.29;84.22
20620;BME280;10469;42.720;23.252;2023-07-24T07:47:49;95037.13;;;31.54;89.99
20620;BME280;10469;42.720;23.252;2023-07-24T07:50:15;95036.47;;;32.79;85.33
20620;BME280;10469;42.720;23.252;2023-07-24T07:52:40;95043.97;;;33.65;77.35
20620;BME280;10469;42.720;23.252;2023-07-24T07:55:06;95047.72;;;34.69;73.09
20620;BME280;10469;42.720;23.252;2023-07-24T07:57:35;95046.47;;;35.29;66.84
20620;BME280;10469;42.720;23.252;2023-07-24T08:00:04;95043.03;;;34.36;68.23
20620;BME280;10469;42.720;23.252;2023-07-24T08:02:31;95047.09;;;33.98;76.53
20620;BME280;10469;42.720;23.252;2023-07-24T08:04:57;95057.38;;;33.56;75.11
20620;BME280;10469;42.720;23.252;2023-07-24T08:07:23;95046.88;;;35.31;67.57
20620;BME280;10469;42.720;23.252;2023-07-24T08:09:48;95052.34;;;33.05;79.84
20620;BME280;10469;42.720;23.252;2023-07-24T08:12:14;95045.84;;;33.95;77.69
20620;BME280;10469;42.720;23.252;2023-07-24T08:14:39;95031.19;;;35.99;62.05
20620;BME280;10469;42.720;23.252;2023-07-24T08:17:05;95026.81;;;36.30;59.44
20620;BME280;10469;42.720;23.252;2023-07-24T08:19:31;95026.06;;;35.10;66.38
20620;BME280;10469;42.720;23.252;2023-07-24T08:21:56;95021.16;;;33.90;74.93
20620;BME280;10469;42.720;23.252;2023-07-24T08:24:21;95017.38;;;34.09;73.63
20620;BME280;10469;42.720;23.252;2023-07-24T08:26:47;95021.53;;;34.29;71.30
20620;BME280;10469;42.720;23.252;2023-07-24T08:29:13;95015.78;;;33.03;78.64
20620;BME280;10469;42.720;23.252;2023-07-24T08:31:38;95012.16;;;33.29;81.32
20620;BME280;10469;42.720;23.252;2023-07-24T08:34:04;95023.38;;;35.32;66.23
20620;BME280;10469;42.720;23.252;2023-07-24T08:36:29;95016.09;;;35.06;63.75
20620;BME280;10469;42.720;23.252;2023-07-24T08:38:54;95011.72;;;34.46;66.17
20620;BME280;10469;42.720;23.252;2023-07-24T08:41:20;95014.47;;;34.42;66.24
20620;BME280;10469;42.720;23.252;2023-07-24T08:43:46;95003.19;;;34.76;63.58
20620;BME280;10469;42.720;23.252;2023-07-24T08:46:11;95007.34;;;33.97;69.59
20620;BME280;10469;42.720;23.252;2023-07-24T08:48:39;95009.28;;;33.22;74.31
20620;BME280;10469;42.720;23.252;2023-07-24T08:51:06;94999.22;;;34.77;64.09
20620;BME280;10469;42.720;23.252;2023-07-24T08:53:37;95005.38;;;33.60;67.61
20620;BME280;10469;42.720;23.252;2023-07-24T08:56:06;94997.00;;;35.04;61.20
20620;BME280;10469;42.720;23.252;2023-07-24T08:58:33;94980.59;;;33.89;70.27
20620;BME280;10469;42.720;23.252;2023-07-24T09:01:00;94983.34;;;36.04;56.48
20620;BME280;10469;42.720;23.252;2023-07-24T09:03:26;95004.63;;;35.22;58.24
20620;BME280;10469;42.720;23.252;2023-07-24T09:05:52;94989.31;;;36.35;57.55
20620;BME280;10469;42.720;23.252;2023-07-24T09:08:32;94987.06;;;38.12;48.94
20620;BME280;10469;42.720;23.252;2023-07-24T09:11:01;94970.41;;;38.88;41.85
20620;BME280;10469;42.720;23.252;2023-07-24T09:13:27;94983.94;;;37.26;49.46
20620;BME280;10469;42.720;23.252;2023-07-24T09:15:53;94984.88;;;37.86;42.33
20620;BME280;10469;42.720;23.252;2023-07-24T09:18:19;94978.63;;;38.64;40.50
20620;BME280;10469;42.720;23.252;2023-07-24T09:20:45;94970.22;;;36.01;53.31
20620;BME280;10469;42.720;23.252;2023-07-24T09:23:12;94967.25;;;37.05;47.27
20620;BME280;10469;42.720;23.252;2023-07-24T09:25:40;94965.38;;;36.66;52.15
20620;BME280;10469;42.720;23.252;2023-07-24T09:30:35;94962.22;;;35.96;53.59
20620;BME280;10469;42.720;23.252;2023-07-24T09:33:01;94956.22;;;36.51;51.89
20620;BME280;10469;42.720;23.252;2023-07-24T09:35:26;94958.63;;;38.66;42.16
20620;BME280;10469;42.720;23.252;2023-07-24T09:38:07;94937.81;;;38.63;39.40
20620;BME280;10469;42.720;23.252;2023-07-24T09:40:45;94940.50;;;38.36;40.81
20620;BME280;10469;42.720;23.252;2023-07-24T09:43:19;94937.91;;;39.28;37.41
20620;BME280;10469;42.720;23.252;2023-07-24T09:45:47;94922.94;;;40.20;35.31
20620;BME280;10469;42.720;23.252;2023-07-24T09:48:13;94927.59;;;39.22;35.46
20620;BME280;10469;42.720;23.252;2023-07-24T09:50:41;94923.44;;;39.87;34.63
20620;BME280;10469;42.720;23.252;2023-07-24T09:53:13;94916.88;;;40.45;33.97
20620;BME280;10469;42.720;23.252;2023-07-24T09:55:49;94925.19;;;37.37;42.62
20620;BME280;10469;42.720;23.252;2023-07-24T09:58:17;94907.44;;;38.96;39.91
20620;BME280;10469;42.720;23.252;2023-07-24T10:00:44;94914.16;;;39.02;37.96
20620;BME280;10469;42.720;23.252;2023-07-24T10:03:10;94906.31;;;40.52;34.88
20620;BME280;10469;42.720;23.252;2023-07-24T10:05:36;94915.56;;;38.49;38.70
20620;BME280;10469;42.720;23.252;2023-07-24T10:08:01;94899.72;;;37.87;43.42
20620;BME280;10469;42.720;23.252;2023-07-24T10:10:27;94892.84;;;36.23;49.76
20620;BME280;10469;42.720;23.252;2023-07-24T10:12:57;94901.63;;;37.97;44.90
20620;BME280;10469;42.720;23.252;2023-07-24T10:15:24;94894.38;;;40.88;35.25
20620;BME280;10469;42.720;23.252;2023-07-24T10:18:04;94891.28;;;39.07;38.79
20620;BME280;10469;42.720;23.252;2023-07-24T10:20:40;94885.66;;;39.92;37.00
20620;BME280;10469;42.720;23.252;2023-07-24T10:23:08;94884.88;;;38.73;38.73
20620;BME280;10469;42.720;23.252;2023-07-24T10:25:36;94885.28;;;37.26;46.08
20620;BME280;10469;42.720;23.252;2023-07-24T10:28:06;94878.13;;;38.29;41.31
20620;BME280;10469;42.720;23.252;2023-07-24T10:30:34;94883.69;;;37.25;46.39
20620;BME280;10469;42.720;23.252;2023-07-24T10:33:07;94882.38;;;37.51;43.44
20620;BME280;10469;42.720;23.252;2023-07-24T10:36:04;94870.66;;;37.00;44.47
20620;BME280;10469;42.720;23.252;2023-07-24T10:38:34;94851.28;;;36.50;45.08
20620;BME280;10469;42.720;23.252;2023-07-24T10:41:04;94864.84;;;36.55;45.43
20620;BME280;10469;42.720;23.252;2023-07-24T10:43:43;94862.75;;;37.54;48.38
20620;BME280;10469;42.720;23.252;2023-07-24T10:46:10;94870.13;;;36.10;56.07
20620;BME280;10469;42.720;23.252;2023-07-24T10:48:36;94857.53;;;37.56;49.65
20620;BME280;10469;42.720;23.252;2023-07-24T10:51:09;94856.38;;;37.54;45.80
20620;BME280;10469;42.720;23.252;2023-07-24T10:53:37;94855.75;;;37.25;49.95
20620;BME280;10469;42.720;23.252;2023-07-24T10:56:04;94854.97;;;36.04;50.47
20620;BME280;10469;42.720;23.252;2023-07-24T10:58:31;94830.91;;;37.41;44.32
20620;BME280;10469;42.720;23.252;2023-07-24T11:00:56;94846.00;;;37.99;43.77
20620;BME280;10469;42.720;23.252;2023-07-24T11:03:23;94859.03;;;37.09;46.95
20620;BME280;10469;42.720;23.252;2023-07-24T11:05:49;94863.63;;;34.23;67.32
20620;BME280;10469;42.720;23.252;2023-07-24T11:08:19;94861.91;;;34.00;71.87
20620;BME280;10469;42.720;23.252;2023-07-24T11:13:12;94835.84;;;35.63;60.29
20620;BME280;10469;42.720;23.252;2023-07-24T11:15:38;94819.28;;;37.91;47.65
20620;BME280;10469;42.720;23.252;2023-07-24T11:18:04;94841.88;;;37.07;50.33
20620;BME280;10469;42.720;23.252;2023-07-24T11:20:36;94825.75;;;37.88;50.85
20620;BME280;10469;42.720;23.252;2023-07-24T11:23:02;94813.47;;;37.15;47.99
20620;BME280;10469;42.720;23.252;2023-07-24T11:25:27;94824.69;;;35.78;56.84
20620;BME280;10469;42.720;23.252;2023-07-24T11:27:53;94825.09;;;35.58;54.31
20620;BME280;10469;42.720;23.252;2023-07-24T11:30:20;94828.28;;;35.60;55.92
20620;BME280;10469;42.720;23.252;2023-07-24T11:32:46;94821.06;;;35.95;54.74
20620;BME280;10469;42.720;23.252;2023-07-24T11:35:12;94822.69;;;35.67;53.21
20620;BME280;10469;42.720;23.252;2023-07-24T11:37:38;94824.25;;;35.26;55.47
20620;BME280;10469;42.720;23.252;2023-07-24T11:40:04;94814.28;;;35.32;53.83
20620;BME280;10469;42.720;23.252;2023-07-24T11:42:37;94811.34;;;34.60;58.48
20620;BME280;10469;42.720;23.252;2023-07-24T11:45:04;94811.31;;;34.53;64.18
20620;BME280;10469;42.720;23.252;2023-07-24T11:47:30;94803.47;;;34.91;59.93
20620;BME280;10469;42.720;23.252;2023-07-24T11:50:00;94792.66;;;33.88;65.17
20620;BME280;10469;42.720;23.252;2023-07-24T11:52:26;94798.78;;;33.53;71.54
20620;BME280;10469;42.720;23.252;2023-07-24T11:54:58;94799.13;;;34.06;66.11
20620;BME280;10469;42.720;23.252;2023-07-24T11:57:29;94799.03;;;33.40;71.10
20620;BME280;10469;42.720;23.252;2023-07-24T11:59:54;94788.63;;;33.78;71.70
20620;BME280;10469;42.720;23.252;2023-07-24T12:02:23;94790.00;;;33.47;66.79
20620;BME280;10469;42.720;23.252;2023-07-24T12:04:56;94789.31;;;34.30;63.88
20620;BME280;10469;42.720;23.252;2023-07-24T12:07:33;94787.47;;;34.56;60.14
20620;BME280;10469;42.720;23.252;2023-07-24T12:10:00;94783.41;;;34.42;58.10
20620;BME280;10469;42.720;23.252;2023-07-24T12:15:05;94784.97;;;34.33;56.40
20620;BME280;10469;42.720;23.252;2023-07-24T12:17:30;94783.63;;;35.14;54.18
20620;BME280;10469;42.720;23.252;2023-07-24T12:19:56;94786.00;;;35.40;52.20
20620;BME280;10469;42.720;23.252;2023-07-24T12:22:21;94776.47;;;35.38;49.57
20620;BME280;10469;42.720;23.252;2023-07-24T12:24:47;94785.22;;;35.26;52.82
20620;BME280;10469;42.720;23.252;2023-07-24T12:27:13;94772.88;;;35.12;53.26
20620;BME280;10469;42.720;23.252;2023-07-24T12:29:38;94774.72;;;34.51;56.93
20620;BME280;10469;42.720;23.252;2023-07-24T12:32:04;94773.53;;;33.79;62.14
20620;BME280;10469;42.720;23.252;2023-07-24T12:34:29;94778.56;;;33.63;63.94
20620;BME280;10469;42.720;23.252;2023-07-24T12:36:55;94762.69;;;33.60;64.82
20620;BME280;10469;42.720;23.252;2023-07-24T12:39:20;94768.50;;;33.99;61.42
20620;BME280;10469;42.720;23.252;2023-07-24T12:41:46;94762.97;;;34.03;62.45
20620;BME280;10469;42.720;23.252;2023-07-24T12:44:11;94742.91;;;33.76;62.78
20620;BME280;10469;42.720;23.252;2023-07-24T12:46:37;94753.13;;;34.27;59.46
20620;BME280;10469;42.720;23.252;2023-07-24T12:49:02;94761.88;;;34.32;59.09
20620;BME280;10469;42.720;23.252;2023-07-24T12:51:28;94761.25;;;34.67;59.11
20620;BME280;10469;42.720;23.252;2023-07-24T12:53:53;94754.28;;;34.18;61.67